sensor_id;sensor_type;location;lat;lon;timestamp;P1;durP1;ratioP1;P2;durP2;ratioP2
69621;SDS011;56841;55.964;37.674;2023-03-31T00:01:39;3.08;;;1.30;;
69621;SDS011;56841;55.964;37.674;2023-03-31T00:04:08;4.15;;;1.67;;
69621;SDS011;56841;55.964;37.674;2023-03-31T00:06:39;3.33;;;1.60;;
69621;SDS011;56841;55.964;37.674;2023-03-31T00:09:07;3.72;;;1.67;;
69621;SDS011;56841;55.964;37.674;2023-03-31T00:11:38;3.67;;;1.50;;
69621;SDS011;56841;55.964;37.674;2023-03-31T00:14:05;4.03;;;1.73;;
69621;SDS011;56841;55.964;37.674;2023-03-31T00:16:32;3.80;;;1.80;;
69621;SDS011;56841;55.964;37.674;2023-03-31T00:18:59;4.65;;;1.83;;
69621;SDS011;56841;55.964;37.674;2023-03-31T00:21:26;4.60;;;2.00;;
69621;SDS011;56841;55.964;37.674;2023-03-31T00:23:59;3.42;;;1.65;;
69621;SDS011;56841;55.964;37.674;2023-03-31T00:26:27;3.00;;;1.33;;
69621;SDS011;56841;55.964;37.674;2023-03-31T00:28:53;3.40;;;1.63;;
69621;SDS011;56841;55.964;37.674;2023-03-31T00:31:20;3.97;;;1.90;;
69621;SDS011;56841;55.964;37.674;2023-03-31T00:33:47;3.97;;;1.77;;
69621;SDS011;56841;55.964;37.674;2023-03-31T00:36:14;3.85;;;1.90;;
69621;SDS011;56841;55.964;37.674;2023-03-31T00:38:48;4.10;;;1.70;;
69621;SDS011;56841;55.964;37.674;2023-03-31T00:41:16;3.88;;;1.38;;
69621;SDS011;56841;55.964;37.674;2023-03-31T00:46:35;3.65;;;1.73;;
69621;SDS011;56841;55.964;37.674;2023-03-31T00:49:22;3.75;;;1.67;;
69621;SDS011;56841;55.964;37.674;2023-03-31T00:51:53;5.10;;;2.38;;
69621;SDS011;56841;55.964;37.674;2023-03-31T00:54:22;3.15;;;1.40;;
69621;SDS011;56841;55.964;37.674;2023-03-31T00:56:51;4.13;;;2.10;;
69621;SDS011;56841;55.964;37.674;2023-03-31T00:59:19;5.00;;;1.88;;
69621;SDS011;56841;55.964;37.674;2023-03-31T01:01:51;5.05;;;1.73;;
69621;SDS011;56841;55.964;37.674;2023-03-31T01:04:19;3.42;;;1.55;;
69621;SDS011;56841;55.964;37.674;2023-03-31T01:06:54;3.53;;;1.90;;
69621;SDS011;56841;55.964;37.674;2023-03-31T01:09:28;3.45;;;1.80;;
69621;SDS011;56841;55.964;37.674;2023-03-31T01:12:00;4.47;;;2.10;;
69621;SDS011;56841;55.964;37.674;2023-03-31T01:14:29;4.28;;;1.80;;
69621;SDS011;56841;55.964;37.674;2023-03-31T01:16:55;4.25;;;2.28;;
69621;SDS011;56841;55.964;37.674;2023-03-31T01:22:35;3.80;;;1.92;;
69621;SDS011;56841;55.964;37.674;2023-03-31T01:25:50;3.65;;;1.92;;
69621;SDS011;56841;55.964;37.674;2023-03-31T01:44:57;3.70;;;1.52;;
69621;SDS011;56841;55.964;37.674;2023-03-31T01:47:27;4.38;;;1.52;;
69621;SDS011;56841;55.964;37.674;2023-03-31T01:50:07;3.38;;;1.67;;
69621;SDS011;56841;55.964;37.674;2023-03-31T01:53:02;4.00;;;1.60;;
69621;SDS011;56841;55.964;37.674;2023-03-31T01:58:12;3.47;;;1.70;;
69621;SDS011;56841;55.964;37.674;2023-03-31T02:00:48;3.63;;;1.60;;
69621;SDS011;56841;55.964;37.674;2023-03-31T02:03:23;3.97;;;1.52;;
69621;SDS011;56841;55.964;37.674;2023-03-31T02:06:15;4.32;;;1.50;;
69621;SDS011;56841;55.964;37.674;2023-03-31T02:09:09;3.97;;;1.88;;
69621;SDS011;56841;55.964;37.674;2023-03-31T02:11:39;3.75;;;1.80;;
69621;SDS011;56841;55.964;37.674;2023-03-31T02:14:07;3.78;;;1.70;;
69621;SDS011;56841;55.964;37.674;2023-03-31T02:16:57;3.90;;;1.70;;
69621;SDS011;56841;55.964;37.674;2023-03-31T02:19:28;4.85;;;2.10;;
69621;SDS011;56841;55.964;37.674;2023-03-31T02:21:58;5.65;;;1.60;;
69621;SDS011;56841;55.964;37.674;2023-03-31T02:24:25;5.47;;;1.70;;
69621;SDS011;56841;55.964;37.674;2023-03-31T02:26:56;4.32;;;1.75;;
69621;SDS011;56841;55.964;37.674;2023-03-31T02:29:30;5.68;;;2.03;;
69621;SDS011;56841;55.964;37.674;2023-03-31T02:32:00;5.20;;;1.90;;
69621;SDS011;56841;55.964;37.674;2023-03-31T02:34:29;4.03;;;1.98;;
69621;SDS011;56841;55.964;37.674;2023-03-31T02:36:56;4.68;;;2.10;;
69621;SDS011;56841;55.964;37.674;2023-03-31T02:39:42;4.97;;;2.33;;
69621;SDS011;56841;55.964;37.674;2023-03-31T02:42:11;3.70;;;1.80;;
69621;SDS011;56841;55.964;37.674;2023-03-31T02:44:38;4.45;;;2.13;;
69621;SDS011;56841;55.964;37.674;2023-03-31T02:47:05;4.72;;;2.22;;
69621;SDS011;56841;55.964;37.674;2023-03-31T02:49:34;5.65;;;2.20;;
69621;SDS011;56841;55.964;37.674;2023-03-31T02:55:00;3.88;;;1.83;;
69621;SDS011;56841;55.964;37.674;2023-03-31T02:57:40;3.90;;;1.70;;
69621;SDS011;56841;55.964;37.674;2023-03-31T03:03:28;5.38;;;1.83;;
69621;SDS011;56841;55.964;37.674;2023-03-31T03:14:35;5.07;;;2.28;;
69621;SDS011;56841;55.964;37.674;2023-03-31T03:17:20;4.80;;;2.22;;
69621;SDS011;56841;55.964;37.674;2023-03-31T03:19:59;5.22;;;1.95;;
69621;SDS011;56841;55.964;37.674;2023-03-31T03:22:32;4.38;;;1.70;;
69621;SDS011;56841;55.964;37.674;2023-03-31T03:24:58;4.03;;;1.85;;
69621;SDS011;56841;55.964;37.674;2023-03-31T03:27:24;5.13;;;2.05;;
69621;SDS011;56841;55.964;37.674;2023-03-31T03:29:50;5.40;;;2.13;;
69621;SDS011;56841;55.964;37.674;2023-03-31T03:32:16;6.10;;;1.98;;
69621;SDS011;56841;55.964;37.674;2023-03-31T03:34:42;5.00;;;2.08;;
69621;SDS011;56841;55.964;37.674;2023-03-31T03:37:07;4.28;;;2.08;;
69621;SDS011;56841;55.964;37.674;2023-03-31T03:39:33;4.60;;;1.80;;
69621;SDS011;56841;55.964;37.674;2023-03-31T03:41:59;3.53;;;1.52;;
69621;SDS011;56841;55.964;37.674;2023-03-31T03:44:25;3.47;;;1.58;;
69621;SDS011;56841;55.964;37.674;2023-03-31T03:46:51;6.35;;;1.95;;
69621;SDS011;56841;55.964;37.674;2023-03-31T03:49:17;4.43;;;1.92;;
69621;SDS011;56841;55.964;37.674;2023-03-31T03:51:43;3.50;;;1.50;;
69621;SDS011;56841;55.964;37.674;2023-03-31T03:54:09;4.25;;;1.80;;
69621;SDS011;56841;55.964;37.674;2023-03-31T03:56:34;4.63;;;2.00;;
69621;SDS011;56841;55.964;37.674;2023-03-31T03:59:00;4.63;;;1.98;;
69621;SDS011;56841;55.964;37.674;2023-03-31T04:01:26;3.92;;;1.58;;
69621;SDS011;56841;55.964;37.674;2023-03-31T04:03:51;4.35;;;1.83;;
69621;SDS011;56841;55.964;37.674;2023-03-31T04:06:17;3.55;;;1.50;;
69621;SDS011;56841;55.964;37.674;2023-03-31T04:08:43;6.32;;;2.22;;
69621;SDS011;56841;55.964;37.674;2023-03-31T04:11:17;8.27;;;2.95;;
69621;SDS011;56841;55.964;37.674;2023-03-31T04:13:44;8.98;;;3.15;;
69621;SDS011;56841;55.964;37.674;2023-03-31T04:16:10;5.70;;;2.53;;
69621;SDS011;56841;55.964;37.674;2023-03-31T04:18:36;3.55;;;1.65;;
69621;SDS011;56841;55.964;37.674;2023-03-31T04:21:13;4.10;;;1.65;;
69621;SDS011;56841;55.964;37.674;2023-03-31T04:23:47;4.22;;;1.70;;
69621;SDS011;56841;55.964;37.674;2023-03-31T04:26:16;4.68;;;1.80;;
69621;SDS011;56841;55.964;37.674;2023-03-31T04:28:43;5.15;;;1.90;;
69621;SDS011;56841;55.964;37.674;2023-03-31T04:31:11;5.00;;;1.77;;
69621;SDS011;56841;55.964;37.674;2023-03-31T04:36:15;3.80;;;1.70;;
69621;SDS011;56841;55.964;37.674;2023-03-31T04:38:47;4.90;;;1.90;;
69621;SDS011;56841;55.964;37.674;2023-03-31T04:41:15;4.43;;;1.73;;
69621;SDS011;56841;55.964;37.674;2023-03-31T04:43:41;4.88;;;1.80;;
69621;SDS011;56841;55.964;37.674;2023-03-31T04:46:07;5.00;;;1.77;;
69621;SDS011;56841;55.964;37.674;2023-03-31T04:48:33;5.00;;;2.00;;
69621;SDS011;56841;55.964;37.674;2023-03-31T04:51:00;7.43;;;2.20;;
69621;SDS011;56841;55.964;37.674;2023-03-31T04:53:26;4.20;;;2.00;;
69621;SDS011;56841;55.964;37.674;2023-03-31T04:55:51;5.70;;;2.10;;
69621;SDS011;56841;55.964;37.674;2023-03-31T04:58:17;5.68;;;2.05;;
69621;SDS011;56841;55.964;37.674;2023-03-31T05:00:43;4.57;;;1.80;;
69621;SDS011;56841;55.964;37.674;2023-03-31T05:03:09;5.47;;;2.30;;
69621;SDS011;56841;55.964;37.674;2023-03-31T05:05:35;5.45;;;2.33;;
69621;SDS011;56841;55.964;37.674;2023-03-31T05:08:01;4.50;;;2.10;;
69621;SDS011;56841;55.964;37.674;2023-03-31T05:10:28;5.40;;;2.13;;
69621;SDS011;56841;55.964;37.674;2023-03-31T05:12:54;5.50;;;2.47;;
69621;SDS011;56841;55.964;37.674;2023-03-31T05:15:20;11.23;;;2.40;;
69621;SDS011;56841;55.964;37.674;2023-03-31T05:17:46;6.75;;;2.60;;
69621;SDS011;56841;55.964;37.674;2023-03-31T05:20:12;4.95;;;2.28;;
69621;SDS011;56841;55.964;37.674;2023-03-31T05:22:39;4.53;;;1.90;;
69621;SDS011;56841;55.964;37.674;2023-03-31T05:25:06;6.45;;;2.63;;
69621;SDS011;56841;55.964;37.674;2023-03-31T05:27:34;5.60;;;2.40;;
69621;SDS011;56841;55.964;37.674;2023-03-31T05:30:01;7.88;;;2.13;;
69621;SDS011;56841;55.964;37.674;2023-03-31T05:32:28;7.28;;;2.40;;
69621;SDS011;56841;55.964;37.674;2023-03-31T05:34:54;5.57;;;2.15;;
69621;SDS011;56841;55.964;37.674;2023-03-31T05:37:23;4.78;;;1.80;;
69621;SDS011;56841;55.964;37.674;2023-03-31T05:39:50;6.72;;;2.17;;
69621;SDS011;56841;55.964;37.674;2023-03-31T05:42:16;8.55;;;2.30;;
69621;SDS011;56841;55.964;37.674;2023-03-31T05:44:42;8.13;;;1.73;;
69621;SDS011;56841;55.964;37.674;2023-03-31T05:47:08;4.50;;;1.90;;
69621;SDS011;56841;55.964;37.674;2023-03-31T05:49:34;5.15;;;1.80;;
69621;SDS011;56841;55.964;37.674;2023-03-31T05:52:00;4.30;;;2.08;;
69621;SDS011;56841;55.964;37.674;2023-03-31T05:54:26;5.28;;;1.90;;
69621;SDS011;56841;55.964;37.674;2023-03-31T05:56:52;5.70;;;2.17;;
69621;SDS011;56841;55.964;37.674;2023-03-31T05:59:18;6.45;;;2.30;;
69621;SDS011;56841;55.964;37.674;2023-03-31T06:01:45;5.18;;;2.15;;
69621;SDS011;56841;55.964;37.674;2023-03-31T06:04:11;6.57;;;2.67;;
69621;SDS011;56841;55.964;37.674;2023-03-31T06:06:37;7.63;;;2.92;;
69621;SDS011;56841;55.964;37.674;2023-03-31T06:09:03;6.40;;;2.00;;
69621;SDS011;56841;55.964;37.674;2023-03-31T06:11:29;4.00;;;1.85;;
69621;SDS011;56841;55.964;37.674;2023-03-31T06:13:55;5.07;;;2.13;;
69621;SDS011;56841;55.964;37.674;2023-03-31T06:16:21;7.28;;;2.67;;
69621;SDS011;56841;55.964;37.674;2023-03-31T06:18:47;11.00;;;3.05;;
69621;SDS011;56841;55.964;37.674;2023-03-31T06:21:16;5.05;;;2.00;;
69621;SDS011;56841;55.964;37.674;2023-03-31T06:23:43;4.60;;;2.20;;
69621;SDS011;56841;55.964;37.674;2023-03-31T06:26:10;6.82;;;2.30;;
69621;SDS011;56841;55.964;37.674;2023-03-31T06:28:38;4.30;;;2.03;;
69621;SDS011;56841;55.964;37.674;2023-03-31T06:31:05;4.68;;;2.22;;
69621;SDS011;56841;55.964;37.674;2023-03-31T06:33:33;5.55;;;2.17;;
69621;SDS011;56841;55.964;37.674;2023-03-31T06:35:59;4.68;;;2.03;;
69621;SDS011;56841;55.964;37.674;2023-03-31T06:38:28;9.43;;;2.65;;
69621;SDS011;56841;55.964;37.674;2023-03-31T06:40:54;7.03;;;2.97;;
69621;SDS011;56841;55.964;37.674;2023-03-31T06:43:20;5.15;;;2.35;;
69621;SDS011;56841;55.964;37.674;2023-03-31T06:45:46;5.05;;;2.22;;
69621;SDS011;56841;55.964;37.674;2023-03-31T06:48:12;4.68;;;2.17;;
69621;SDS011;56841;55.964;37.674;2023-03-31T06:50:39;5.80;;;2.38;;
69621;SDS011;56841;55.964;37.674;2023-03-31T06:53:09;5.70;;;2.13;;
69621;SDS011;56841;55.964;37.674;2023-03-31T06:55:35;6.10;;;2.10;;
69621;SDS011;56841;55.964;37.674;2023-03-31T06:58:02;4.55;;;2.05;;
69621;SDS011;56841;55.964;37.674;2023-03-31T07:00:28;7.53;;;2.53;;
69621;SDS011;56841;55.964;37.674;2023-03-31T07:02:55;7.97;;;2.20;;
69621;SDS011;56841;55.964;37.674;2023-03-31T07:05:21;4.50;;;1.83;;
69621;SDS011;56841;55.964;37.674;2023-03-31T07:07:53;6.88;;;2.25;;
69621;SDS011;56841;55.964;37.674;2023-03-31T07:10:21;5.47;;;2.05;;
69621;SDS011;56841;55.964;37.674;2023-03-31T07:12:47;5.30;;;2.10;;
69621;SDS011;56841;55.964;37.674;2023-03-31T07:15:13;7.00;;;2.33;;
69621;SDS011;56841;55.964;37.674;2023-03-31T07:17:39;3.95;;;1.85;;
69621;SDS011;56841;55.964;37.674;2023-03-31T07:20:12;4.35;;;1.92;;
69621;SDS011;56841;55.964;37.674;2023-03-31T07:22:42;4.05;;;2.03;;
69621;SDS011;56841;55.964;37.674;2023-03-31T07:25:10;4.63;;;1.90;;
69621;SDS011;56841;55.964;37.674;2023-03-31T07:27:38;4.18;;;1.88;;
69621;SDS011;56841;55.964;37.674;2023-03-31T07:30:09;4.95;;;2.28;;
69621;SDS011;56841;55.964;37.674;2023-03-31T07:32:36;5.35;;;2.15;;
69621;SDS011;56841;55.964;37.674;2023-03-31T07:35:05;7.55;;;2.58;;
69621;SDS011;56841;55.964;37.674;2023-03-31T07:37:35;5.68;;;2.60;;
69621;SDS011;56841;55.964;37.674;2023-03-31T07:40:03;5.90;;;2.47;;
69621;SDS011;56841;55.964;37.674;2023-03-31T07:42:31;5.15;;;2.28;;
69621;SDS011;56841;55.964;37.674;2023-03-31T07:44:57;6.30;;;3.17;;
69621;SDS011;56841;55.964;37.674;2023-03-31T07:47:23;9.48;;;3.30;;
69621;SDS011;56841;55.964;37.674;2023-03-31T07:49:49;6.10;;;2.33;;
69621;SDS011;56841;55.964;37.674;2023-03-31T07:52:15;6.47;;;2.28;;
69621;SDS011;56841;55.964;37.674;2023-03-31T07:54:42;4.82;;;1.90;;
69621;SDS011;56841;55.964;37.674;2023-03-31T07:57:08;4.97;;;2.08;;
69621;SDS011;56841;55.964;37.674;2023-03-31T07:59:34;5.28;;;2.05;;
69621;SDS011;56841;55.964;37.674;2023-03-31T08:02:00;5.22;;;2.42;;
69621;SDS011;56841;55.964;37.674;2023-03-31T08:04:26;9.77;;;3.15;;
69621;SDS011;56841;55.964;37.674;2023-03-31T08:06:51;5.45;;;2.15;;
69621;SDS011;56841;55.964;37.674;2023-03-31T08:09:17;4.25;;;1.80;;
69621;SDS011;56841;55.964;37.674;2023-03-31T08:11:44;3.55;;;1.80;;
69621;SDS011;56841;55.964;37.674;2023-03-31T08:14:10;3.22;;;1.70;;
69621;SDS011;56841;55.964;37.674;2023-03-31T08:16:35;4.97;;;2.10;;
69621;SDS011;56841;55.964;37.674;2023-03-31T08:19:01;3.97;;;1.80;;
69621;SDS011;56841;55.964;37.674;2023-03-31T08:21:28;3.85;;;1.80;;
69621;SDS011;56841;55.964;37.674;2023-03-31T08:23:54;3.88;;;1.85;;
69621;SDS011;56841;55.964;37.674;2023-03-31T08:26:20;3.08;;;1.48;;
69621;SDS011;56841;55.964;37.674;2023-03-31T08:28:48;7.57;;;2.13;;
69621;SDS011;56841;55.964;37.674;2023-03-31T08:31:15;4.40;;;1.80;;
69621;SDS011;56841;55.964;37.674;2023-03-31T08:33:43;5.15;;;1.75;;
69621;SDS011;56841;55.964;37.674;2023-03-31T08:36:09;9.90;;;2.10;;
69621;SDS011;56841;55.964;37.674;2023-03-31T08:38:36;11.32;;;4.78;;
69621;SDS011;56841;55.964;37.674;2023-03-31T08:41:07;6.75;;;2.70;;
69621;SDS011;56841;55.964;37.674;2023-03-31T08:43:44;10.20;;;3.50;;
69621;SDS011;56841;55.964;37.674;2023-03-31T08:46:13;2.92;;;1.60;;
69621;SDS011;56841;55.964;37.674;2023-03-31T08:48:45;5.72;;;1.83;;
69621;SDS011;56841;55.964;37.674;2023-03-31T08:54:05;4.97;;;2.10;;
69621;SDS011;56841;55.964;37.674;2023-03-31T08:56:41;4.65;;;2.05;;
69621;SDS011;56841;55.964;37.674;2023-03-31T08:59:17;6.35;;;2.58;;
69621;SDS011;56841;55.964;37.674;2023-03-31T09:01:55;6.55;;;2.90;;
69621;SDS011;56841;55.964;37.674;2023-03-31T09:07:04;5.85;;;1.60;;
69621;SDS011;56841;55.964;37.674;2023-03-31T09:12:04;6.53;;;1.55;;
69621;SDS011;56841;55.964;37.674;2023-03-31T09:14:45;4.85;;;1.70;;
69621;SDS011;56841;55.964;37.674;2023-03-31T09:17:23;3.08;;;1.30;;
69621;SDS011;56841;55.964;37.674;2023-03-31T09:19:55;4.03;;;1.70;;
69621;SDS011;56841;55.964;37.674;2023-03-31T09:22:42;4.53;;;1.60;;
69621;SDS011;56841;55.964;37.674;2023-03-31T09:27:56;3.35;;;1.38;;
69621;SDS011;56841;55.964;37.674;2023-03-31T09:30:28;4.32;;;1.60;;
69621;SDS011;56841;55.964;37.674;2023-03-31T09:33:15;3.67;;;1.80;;
69621;SDS011;56841;55.964;37.674;2023-03-31T09:35:43;3.42;;;1.52;;
69621;SDS011;56841;55.964;37.674;2023-03-31T09:38:10;3.25;;;1.65;;
69621;SDS011;56841;55.964;37.674;2023-03-31T09:40:38;3.53;;;1.70;;
69621;SDS011;56841;55.964;37.674;2023-03-31T09:45:50;6.10;;;2.03;;
69621;SDS011;56841;55.964;37.674;2023-03-31T09:48:19;5.00;;;1.77;;
69621;SDS011;56841;55.964;37.674;2023-03-31T09:51:02;4.82;;;1.90;;
69621;SDS011;56841;55.964;37.674;2023-03-31T09:53:31;3.75;;;1.85;;
69621;SDS011;56841;55.964;37.674;2023-03-31T09:56:03;4.10;;;1.75;;
69621;SDS011;56841;55.964;37.674;2023-03-31T09:58:42;6.30;;;1.80;;
69621;SDS011;56841;55.964;37.674;2023-03-31T10:03:46;4.82;;;2.03;;
69621;SDS011;56841;55.964;37.674;2023-03-31T10:06:15;5.55;;;1.70;;
69621;SDS011;56841;55.964;37.674;2023-03-31T10:09:03;6.50;;;2.00;;
69621;SDS011;56841;55.964;37.674;2023-03-31T10:11:29;5.53;;;1.95;;
69621;SDS011;56841;55.964;37.674;2023-03-31T10:16:46;5.18;;;2.15;;
69621;SDS011;56841;55.964;37.674;2023-03-31T10:21:54;6.13;;;2.42;;
69621;SDS011;56841;55.964;37.674;2023-03-31T10:24:39;2.78;;;1.70;;
69621;SDS011;56841;55.964;37.674;2023-03-31T10:29:51;5.25;;;2.25;;
69621;SDS011;56841;55.964;37.674;2023-03-31T10:35:02;9.27;;;2.30;;
69621;SDS011;56841;55.964;37.674;2023-03-31T10:37:47;5.45;;;2.13;;
69621;SDS011;56841;55.964;37.674;2023-03-31T10:40:16;7.72;;;3.20;;
69621;SDS011;56841;55.964;37.674;2023-03-31T10:45:30;4.95;;;2.20;;
69621;SDS011;56841;55.964;37.674;2023-03-31T10:48:02;5.82;;;2.25;;
69621;SDS011;56841;55.964;37.674;2023-03-31T10:50:29;5.22;;;2.30;;
69621;SDS011;56841;55.964;37.674;2023-03-31T10:53:01;7.07;;;2.38;;
69621;SDS011;56841;55.964;37.674;2023-03-31T11:03:40;6.60;;;2.22;;
69621;SDS011;56841;55.964;37.674;2023-03-31T11:09:19;5.15;;;2.10;;
69621;SDS011;56841;55.964;37.674;2023-03-31T11:20:19;6.15;;;2.85;;
69621;SDS011;56841;55.964;37.674;2023-03-31T11:23:34;6.50;;;2.90;;
69621;SDS011;56841;55.964;37.674;2023-03-31T11:33:42;14.73;;;5.65;;
69621;SDS011;56841;55.964;37.674;2023-03-31T11:39:14;8.23;;;3.83;;
69621;SDS011;56841;55.964;37.674;2023-03-31T11:42:28;6.43;;;3.15;;
69621;SDS011;56841;55.964;37.674;2023-03-31T11:45:33;6.18;;;3.00;;
69621;SDS011;56841;55.964;37.674;2023-03-31T11:48:45;8.88;;;3.42;;
69621;SDS011;56841;55.964;37.674;2023-03-31T11:51:29;6.90;;;3.40;;
69621;SDS011;56841;55.964;37.674;2023-03-31T11:54:56;9.68;;;3.35;;
69621;SDS011;56841;55.964;37.674;2023-03-31T11:57:30;9.90;;;3.60;;
69621;SDS011;56841;55.964;37.674;2023-03-31T12:02:52;9.10;;;3.60;;
69621;SDS011;56841;55.964;37.674;2023-03-31T12:05:24;14.40;;;5.10;;
69621;SDS011;56841;55.964;37.674;2023-03-31T13:42:00;12.45;;;5.40;;
69621;SDS011;56841;55.964;37.674;2023-03-31T14:04:58;15.45;;;4.80;;
69621;SDS011;56841;55.964;37.674;2023-03-31T14:07:52;14.95;;;4.93;;
69621;SDS011;56841;55.964;37.674;2023-03-31T14:10:32;15.15;;;5.35;;
69621;SDS011;56841;55.964;37.674;2023-03-31T14:13:11;16.48;;;6.03;;
69621;SDS011;56841;55.964;37.674;2023-03-31T14:15:43;12.45;;;4.85;;
69621;SDS011;56841;55.964;37.674;2023-03-31T14:18:13;16.70;;;5.55;;
69621;SDS011;56841;55.964;37.674;2023-03-31T14:23:37;15.20;;;6.00;;
69621;SDS011;56841;55.964;37.674;2023-03-31T14:29:23;14.05;;;4.97;;
69621;SDS011;56841;55.964;37.674;2023-03-31T14:40:17;15.27;;;5.00;;
69621;SDS011;56841;55.964;37.674;2023-03-31T14:42:44;14.40;;;5.60;;
69621;SDS011;56841;55.964;37.674;2023-03-31T14:45:15;15.68;;;5.95;;
69621;SDS011;56841;55.964;37.674;2023-03-31T14:47:41;13.48;;;5.03;;
69621;SDS011;56841;55.964;37.674;2023-03-31T14:52:45;10.18;;;4.25;;
69621;SDS011;56841;55.964;37.674;2023-03-31T14:55:13;12.77;;;4.15;;
69621;SDS011;56841;55.964;37.674;2023-03-31T14:57:40;12.45;;;4.60;;
69621;SDS011;56841;55.964;37.674;2023-03-31T15:00:11;12.10;;;5.05;;
69621;SDS011;56841;55.964;37.674;2023-03-31T15:02:42;19.63;;;6.75;;
69621;SDS011;56841;55.964;37.674;2023-03-31T15:05:14;14.00;;;4.95;;
69621;SDS011;56841;55.964;37.674;2023-03-31T15:07:48;13.88;;;5.15;;
69621;SDS011;56841;55.964;37.674;2023-03-31T15:10:15;14.50;;;5.50;;
69621;SDS011;56841;55.964;37.674;2023-03-31T15:12:45;11.52;;;5.07;;
69621;SDS011;56841;55.964;37.674;2023-03-31T15:15:12;11.02;;;5.07;;
69621;SDS011;56841;55.964;37.674;2023-03-31T15:17:40;13.93;;;4.80;;
69621;SDS011;56841;55.964;37.674;2023-03-31T15:22:54;13.82;;;5.68;;
69621;SDS011;56841;55.964;37.674;2023-03-31T15:25:21;16.90;;;6.65;;
69621;SDS011;56841;55.964;37.674;2023-03-31T15:27:53;14.85;;;5.93;;
69621;SDS011;56841;55.964;37.674;2023-03-31T15:30:23;11.93;;;4.45;;
69621;SDS011;56841;55.964;37.674;2023-03-31T15:32:50;15.70;;;5.13;;
69621;SDS011;56841;55.964;37.674;2023-03-31T15:35:26;24.08;;;9.45;;
69621;SDS011;56841;55.964;37.674;2023-03-31T15:37:57;15.38;;;6.82;;
69621;SDS011;56841;55.964;37.674;2023-03-31T15:40:27;17.38;;;6.95;;
69621;SDS011;56841;55.964;37.674;2023-03-31T15:43:07;16.83;;;6.75;;
69621;SDS011;56841;55.964;37.674;2023-03-31T15:48:17;14.52;;;5.75;;
69621;SDS011;56841;55.964;37.674;2023-03-31T15:51:16;16.85;;;5.97;;
69621;SDS011;56841;55.964;37.674;2023-03-31T15:53:49;18.27;;;6.53;;
69621;SDS011;56841;55.964;37.674;2023-03-31T15:56:27;20.52;;;8.25;;
69621;SDS011;56841;55.964;37.674;2023-03-31T15:58:56;15.20;;;7.00;;
69621;SDS011;56841;55.964;37.674;2023-03-31T16:01:26;15.80;;;6.55;;
69621;SDS011;56841;55.964;37.674;2023-03-31T16:03:59;17.17;;;6.05;;
69621;SDS011;56841;55.964;37.674;2023-03-31T16:06:35;14.38;;;5.75;;
69621;SDS011;56841;55.964;37.674;2023-03-31T16:14:16;18.23;;;7.25;;
69621;SDS011;56841;55.964;37.674;2023-03-31T16:17:00;19.70;;;8.20;;
69621;SDS011;56841;55.964;37.674;2023-03-31T16:19:40;21.48;;;9.20;;
69621;SDS011;56841;55.964;37.674;2023-03-31T16:22:12;18.75;;;7.72;;
69621;SDS011;56841;55.964;37.674;2023-03-31T16:24:42;17.83;;;6.97;;
69621;SDS011;56841;55.964;37.674;2023-03-31T16:27:09;16.85;;;7.63;;
69621;SDS011;56841;55.964;37.674;2023-03-31T16:29:35;15.93;;;5.95;;
69621;SDS011;56841;55.964;37.674;2023-03-31T16:32:08;13.80;;;5.30;;
69621;SDS011;56841;55.964;37.674;2023-03-31T16:37:21;35.00;;;12.30;;
69621;SDS011;56841;55.964;37.674;2023-03-31T16:39:47;19.92;;;7.43;;
69621;SDS011;56841;55.964;37.674;2023-03-31T16:42:13;21.13;;;7.85;;
69621;SDS011;56841;55.964;37.674;2023-03-31T16:44:39;18.63;;;6.53;;
69621;SDS011;56841;55.964;37.674;2023-03-31T16:47:05;14.93;;;6.07;;
69621;SDS011;56841;55.964;37.674;2023-03-31T16:49:31;15.07;;;6.00;;
69621;SDS011;56841;55.964;37.674;2023-03-31T16:51:57;18.42;;;7.05;;
69621;SDS011;56841;55.964;37.674;2023-03-31T16:54:23;19.27;;;7.20;;
69621;SDS011;56841;55.964;37.674;2023-03-31T16:56:49;17.60;;;7.38;;
69621;SDS011;56841;55.964;37.674;2023-03-31T16:59:17;18.63;;;6.50;;
69621;SDS011;56841;55.964;37.674;2023-03-31T17:01:43;18.88;;;6.95;;
69621;SDS011;56841;55.964;37.674;2023-03-31T17:04:10;19.42;;;7.63;;
69621;SDS011;56841;55.964;37.674;2023-03-31T17:06:36;18.05;;;7.00;;
69621;SDS011;56841;55.964;37.674;2023-03-31T17:09:02;22.42;;;7.78;;
69621;SDS011;56841;55.964;37.674;2023-03-31T17:11:28;18.60;;;6.55;;
69621;SDS011;56841;55.964;37.674;2023-03-31T17:13:55;20.52;;;7.40;;
69621;SDS011;56841;55.964;37.674;2023-03-31T17:16:21;18.52;;;6.53;;
69621;SDS011;56841;55.964;37.674;2023-03-31T17:18:48;15.18;;;5.97;;
69621;SDS011;56841;55.964;37.674;2023-03-31T17:21:14;21.80;;;6.88;;
69621;SDS011;56841;55.964;37.674;2023-03-31T17:23:43;19.08;;;6.55;;
69621;SDS011;56841;55.964;37.674;2023-03-31T17:26:11;18.15;;;6.60;;
69621;SDS011;56841;55.964;37.674;2023-03-31T17:28:38;25.25;;;8.68;;
69621;SDS011;56841;55.964;37.674;2023-03-31T17:31:14;19.08;;;6.63;;
69621;SDS011;56841;55.964;37.674;2023-03-31T17:33:41;17.42;;;7.05;;
69621;SDS011;56841;55.964;37.674;2023-03-31T17:36:08;16.55;;;6.55;;
69621;SDS011;56841;55.964;37.674;2023-03-31T17:38:34;16.48;;;7.18;;
69621;SDS011;56841;55.964;37.674;2023-03-31T17:41:02;18.85;;;7.30;;
69621;SDS011;56841;55.964;37.674;2023-03-31T17:43:29;19.05;;;7.25;;
69621;SDS011;56841;55.964;37.674;2023-03-31T17:45:59;19.63;;;8.10;;
69621;SDS011;56841;55.964;37.674;2023-03-31T17:48:36;22.23;;;8.13;;
69621;SDS011;56841;55.964;37.674;2023-03-31T17:51:07;22.13;;;8.75;;
69621;SDS011;56841;55.964;37.674;2023-03-31T17:53:34;19.85;;;8.13;;
69621;SDS011;56841;55.964;37.674;2023-03-31T17:56:01;21.10;;;8.38;;
69621;SDS011;56841;55.964;37.674;2023-03-31T17:58:28;22.23;;;8.55;;
69621;SDS011;56841;55.964;37.674;2023-03-31T18:00:55;24.95;;;9.10;;
69621;SDS011;56841;55.964;37.674;2023-03-31T18:03:21;24.27;;;9.48;;
69621;SDS011;56841;55.964;37.674;2023-03-31T18:05:47;25.15;;;9.85;;
69621;SDS011;56841;55.964;37.674;2023-03-31T18:08:13;46.47;;;16.98;;
69621;SDS011;56841;55.964;37.674;2023-03-31T18:10:40;46.13;;;16.88;;
69621;SDS011;56841;55.964;37.674;2023-03-31T18:13:07;33.15;;;12.02;;
69621;SDS011;56841;55.964;37.674;2023-03-31T18:15:34;24.58;;;9.00;;
69621;SDS011;56841;55.964;37.674;2023-03-31T18:18:00;23.98;;;8.18;;
69621;SDS011;56841;55.964;37.674;2023-03-31T18:20:26;20.40;;;8.27;;
69621;SDS011;56841;55.964;37.674;2023-03-31T18:22:52;23.25;;;7.88;;
69621;SDS011;56841;55.964;37.674;2023-03-31T18:25:18;34.72;;;13.65;;
69621;SDS011;56841;55.964;37.674;2023-03-31T18:27:44;18.80;;;7.28;;
69621;SDS011;56841;55.964;37.674;2023-03-31T18:30:11;17.63;;;6.70;;
69621;SDS011;56841;55.964;37.674;2023-03-31T18:32:38;19.95;;;7.32;;
69621;SDS011;56841;55.964;37.674;2023-03-31T18:35:05;21.38;;;8.27;;
69621;SDS011;56841;55.964;37.674;2023-03-31T18:37:31;24.83;;;10.57;;
69621;SDS011;56841;55.964;37.674;2023-03-31T18:39:58;21.38;;;7.50;;
69621;SDS011;56841;55.964;37.674;2023-03-31T18:42:23;18.83;;;7.20;;
69621;SDS011;56841;55.964;37.674;2023-03-31T18:44:50;19.58;;;7.40;;
69621;SDS011;56841;55.964;37.674;2023-03-31T18:47:17;25.55;;;7.60;;
69621;SDS011;56841;55.964;37.674;2023-03-31T18:49:44;18.88;;;7.22;;
69621;SDS011;56841;55.964;37.674;2023-03-31T18:52:12;22.00;;;7.88;;
69621;SDS011;56841;55.964;37.674;2023-03-31T18:54:37;23.27;;;8.23;;
69621;SDS011;56841;55.964;37.674;2023-03-31T18:57:03;18.50;;;6.45;;
69621;SDS011;56841;55.964;37.674;2023-03-31T18:59:30;21.02;;;7.65;;